Time;durP1;ratioP1;P1;durP2;ratioP2;P2;SDS_P1;SDS_P2;PMS_P1;PMS_P2;Temp;Humidity;BMP_temperature;BMP_pressure;BME280_temperature;BME280_humidity;BME280_pressure;Samples;Min_cycle;Max_cycle;Signal;HPM_P1;HPM_P2
2022/01/20 00:01:59;;;;;;;0.65;0.52;;;4.30;99.90;;;;;;4440062;32;20074;-64
2022/01/20 00:04:34;;;;;;;2.40;0.93;;;4.40;99.90;;;;;;4442781;32;20093;-65
2022/01/20 00:07:27;;;;;;;0.40;0.40;;;4.40;99.90;;;;;;4441236;32;20065;-64
2022/01/20 00:23:05;;;;;;;4.57;2.08;;;4.40;99.90;;;;;;4438760;32;20549;-64
2022/01/20 00:25:49;;;;;;;0.30;0.30;;;4.50;99.90;;;;;;4440686;32;20081;-64
2022/01/20 00:26:22;;;;;;;0.60;0.60;;;4.50;99.90;;;;;;4439363;32;20077;-65
2022/01/20 00:28:51;;;;;;;24.55;1.02;;;4.50;99.90;;;;;;4438613;32;20500;-64
2022/01/20 00:31:33;;;;;;;21.12;4.20;;;4.50;99.90;;;;;;4441979;32;20123;-64
2022/01/20 00:34:18;;;;;;;0.40;0.40;;;4.60;99.90;;;;;;4440087;32;20101;-64
2022/01/20 00:37:15;;;;;;;0.70;0.55;;;4.60;99.90;;;;;;4442239;32;20081;-64
2022/01/20 00:39:30;;;;;;;0.60;0.60;;;4.60;99.90;;;;;;4439306;32;20117;-64
2022/01/20 00:41:56;;;;;;;0.77;0.77;;;4.60;99.90;;;;;;4441658;32;20998;-63
2022/01/20 00:44:23;;;;;;;0.30;0.30;;;4.50;99.90;;;;;;4442382;32;20151;-64
2022/01/20 00:46:49;;;;;;;0.50;0.50;;;4.60;99.90;;;;;;4443238;32;20615;-64
2022/01/20 00:49:14;;;;;;;1.87;1.12;;;4.60;99.90;;;;;;4442424;32;20068;-64
2022/01/20 00:51:40;;;;;;;0.75;0.75;;;4.70;99.90;;;;;;4438875;32;20550;-64
2022/01/20 00:54:06;;;;;;;11.80;0.85;;;4.60;99.90;;;;;;4441737;32;20128;-63
2022/01/20 00:56:31;;;;;;;1.30;0.82;;;4.60;99.90;;;;;;4439984;32;20533;-64
2022/01/20 00:58:56;;;;;;;6.65;0.95;;;4.70;99.90;;;;;;4440061;32;20133;-64
2022/01/20 01:01:24;;;;;;;0.60;0.60;;;4.70;99.90;;;;;;4441970;32;20417;-64
2022/01/20 01:03:49;;;;;;;0.30;0.30;;;4.60;99.90;;;;;;4442829;32;20521;-65
2022/01/20 01:08:41;;;;;;;2.92;1.80;;;4.60;99.90;;;;;;4440465;32;20044;-64
2022/01/20 01:11:07;;;;;;;0.50;0.50;;;4.50;99.90;;;;;;4441181;32;20363;-64
2022/01/20 01:13:33;;;;;;;0.57;0.57;;;4.40;99.90;;;;;;4438595;32;20119;-65
2022/01/20 01:15:58;;;;;;;1.02;1.00;;;4.40;99.90;;;;;;4442357;32;20537;-65
2022/01/20 01:20:26;;;;;;;2.70;1.12;;;4.50;99.90;;;;;;4441636;32;20093;-65
2022/01/20 01:21:26;;;;;;;3.55;2.47;;;4.40;99.90;;;;;;4436280;32;20639;-65
2022/01/20 01:23:51;;;;;;;0.70;0.70;;;4.40;99.90;;;;;;4442190;32;20097;-64
2022/01/20 01:26:18;;;;;;;0.52;0.52;;;4.50;99.90;;;;;;4439353;32;20127;-64
2022/01/20 01:28:44;;;;;;;25.85;1.62;;;4.40;99.90;;;;;;4438517;32;20319;-65
2022/01/20 01:31:41;;;;;;;43.60;1.33;;;4.40;99.90;;;;;;4442653;32;20064;-64
2022/01/20 01:34:01;;;;;;;0.70;0.70;;;4.40;99.90;;;;;;4427965;32;20097;-64
2022/01/20 01:36:29;;;;;;;1.60;1.33;;;4.30;99.90;;;;;;4440719;32;20136;-64
2022/01/20 01:38:55;;;;;;;1.55;1.45;;;4.30;99.90;;;;;;4442410;32;20133;-65
2022/01/20 01:41:34;;;;;;;3.30;0.75;;;4.30;99.90;;;;;;4442659;32;20069;-65
2022/01/20 01:44:05;;;;;;;8.20;2.08;;;4.20;99.90;;;;;;4440290;32;20084;-65
2022/01/20 01:46:31;;;;;;;0.90;0.90;;;4.20;99.90;;;;;;4443178;32;20116;-65
2022/01/20 01:48:57;;;;;;;0.65;0.65;;;4.20;99.90;;;;;;4442839;32;20065;-65
2022/01/20 01:51:23;;;;;;;0.82;0.82;;;4.20;99.90;;;;;;4442788;32;20100;-64
2022/01/20 01:53:49;;;;;;;0.50;0.50;;;4.10;99.90;;;;;;4439558;32;20072;-64
2022/01/20 01:56:15;;;;;;;0.75;0.75;;;4.20;99.90;;;;;;4444020;32;20556;-65
2022/01/20 01:58:40;;;;;;;8.18;2.37;;;4.10;99.90;;;;;;4441146;32;20153;-64
2022/01/20 02:01:06;;;;;;;0.40;0.40;;;4.10;99.90;;;;;;4443762;32;20431;-64
2022/01/20 02:03:33;;;;;;;0.77;0.77;;;4.10;99.90;;;;;;4443145;32;20061;-65
2022/01/20 02:06:21;;;;;;;0.40;0.40;;;4.10;99.90;;;;;;4442877;32;20069;-64
2022/01/20 02:18:24;;;;;;;1.37;1.27;;;4.00;99.90;;;;;;4442222;32;20073;-65
2022/01/20 02:19:54;;;;;;;0.30;0.30;;;4.00;99.90;;;;;;4440269;32;20073;-65
2022/01/20 02:22:19;;;;;;;0.40;0.40;;;4.00;99.90;;;;;;4444790;32;20524;-65
2022/01/20 02:24:45;;;;;;;1.77;1.20;;;3.90;99.90;;;;;;4443174;32;20100;-64
2022/01/20 02:27:10;;;;;;;1.73;1.17;;;3.90;99.90;;;;;;4443814;32;20064;-65
2022/01/20 02:29:37;;;;;;;0.20;0.20;;;3.80;99.90;;;;;;4442426;32;20065;-64
2022/01/20 02:32:03;;;;;;;0.60;0.60;;;3.80;99.90;;;;;;4443254;32;20077;-65
2022/01/20 02:34:30;;;;;;;0.30;0.30;;;3.80;99.90;;;;;;4443041;32;20077;-65
2022/01/20 02:36:58;;;;;;;0.40;0.40;;;3.80;99.90;;;;;;4441575;32;20070;-64
2022/01/20 02:39:47;;;;;;;0.95;0.93;;;3.80;99.90;;;;;;4441801;32;20085;-65
2022/01/20 02:45:03;;;;;;;0.30;0.30;;;3.80;99.90;;;;;;4442026;32;20078;-65
2022/01/20 02:47:31;;;;;;;3.90;1.27;;;3.70;99.90;;;;;;4441939;32;20152;-65
2022/01/20 02:49:58;;;;;;;0.30;0.30;;;3.70;99.90;;;;;;4443177;32;20065;-65
2022/01/20 02:52:25;;;;;;;1.48;0.68;;;3.60;99.90;;;;;;4441733;32;20338;-65
2022/01/20 02:54:50;;;;;;;0.30;0.30;;;3.60;99.90;;;;;;4439714;32;20080;-65
2022/01/20 02:57:17;;;;;;;0.70;0.65;;;3.60;99.90;;;;;;4440794;32;20127;-65
2022/01/20 02:59:42;;;;;;;0.47;0.47;;;3.50;99.90;;;;;;4442625;32;20073;-65
2022/01/20 03:02:09;;;;;;;0.32;0.32;;;3.50;99.90;;;;;;4443217;32;20569;-64
2022/01/20 03:04:35;;;;;;;1.33;1.23;;;3.40;99.90;;;;;;4440042;32;20065;-65
2022/01/20 03:07:02;;;;;;;0.35;0.35;;;3.40;99.90;;;;;;4441252;32;20124;-65
2022/01/20 03:09:27;;;;;;;2.08;1.25;;;3.30;99.90;;;;;;4441831;32;20065;-64
2022/01/20 03:11:53;;;;;;;0.32;0.32;;;3.40;99.90;;;;;;4444522;32;20521;-65
2022/01/20 03:14:19;;;;;;;2.40;1.12;;;3.30;99.90;;;;;;4442748;32;20065;-65
2022/01/20 03:16:45;;;;;;;0.40;0.40;;;3.30;99.90;;;;;;4443755;32;20605;-65
2022/01/20 03:19:11;;;;;;;5.97;3.22;;;3.30;99.90;;;;;;4442719;32;20070;-65
2022/01/20 03:21:37;;;;;;;2.45;1.52;;;3.30;99.90;;;;;;4442804;32;20545;-65
2022/01/20 03:24:03;;;;;;;0.45;0.45;;;3.30;99.90;;;;;;4443950;32;20524;-65
2022/01/20 03:26:29;;;;;;;3.53;1.15;;;3.30;99.90;;;;;;4441779;32;20126;-65
2022/01/20 03:28:55;;;;;;;0.40;0.40;;;3.20;99.90;;;;;;4442079;32;20123;-65
2022/01/20 03:31:20;;;;;;;0.40;0.40;;;3.20;99.90;;;;;;4442304;32;20072;-64
2022/01/20 03:33:46;;;;;;;0.60;0.60;;;3.30;99.90;;;;;;4443788;32;20131;-64
2022/01/20 03:36:11;;;;;;;15.00;1.23;;;3.30;99.90;;;;;;4442134;32;20123;-64
2022/01/20 03:38:37;;;;;;;0.30;0.30;;;3.30;99.90;;;;;;4442896;32;20116;-63
2022/01/20 03:41:02;;;;;;;5.85;1.52;;;3.30;99.90;;;;;;4442780;32;20584;-65
2022/01/20 03:43:29;;;;;;;0.30;0.30;;;3.30;99.90;;;;;;4440268;32;21267;-65
2022/01/20 03:45:57;;;;;;;0.30;0.30;;;3.30;99.90;;;;;;4443252;32;20076;-64
2022/01/20 03:48:26;;;;;;;0.40;0.40;;;3.20;99.90;;;;;;4442565;32;20164;-64
2022/01/20 03:51:07;;;;;;;0.68;0.68;;;3.20;99.90;;;;;;4442011;32;20215;-64
2022/01/20 03:53:38;;;;;;;0.30;0.30;;;3.20;99.90;;;;;;4441605;32;20468;-65
2022/01/20 03:56:04;;;;;;;0.82;0.82;;;3.20;99.90;;;;;;4440132;32;20132;-64
2022/01/20 03:58:30;;;;;;;3.95;1.35;;;3.20;99.90;;;;;;4438317;32;20068;-64
2022/01/20 04:00:55;;;;;;;1.00;0.45;;;3.20;99.90;;;;;;4440106;32;20085;-64
2022/01/20 04:03:22;;;;;;;6.80;1.40;;;3.30;99.90;;;;;;4445848;32;20081;-64
2022/01/20 04:05:56;;;;;;;2.10;1.45;;;3.30;99.90;;;;;;4443622;32;20123;-64
2022/01/20 04:08:25;;;;;;;2.58;1.48;;;3.30;99.90;;;;;;4443262;32;20460;-64
2022/01/20 04:10:50;;;;;;;3.65;0.95;;;3.40;99.90;;;;;;4444317;32;20443;-64
2022/01/20 04:13:17;;;;;;;0.40;0.40;;;3.40;99.90;;;;;;4444740;32;20077;-65
2022/01/20 04:15:43;;;;;;;4.57;2.78;;;3.40;99.90;;;;;;4442691;32;20139;-64
2022/01/20 04:18:11;;;;;;;0.62;0.62;;;3.40;99.90;;;;;;4441806;32;20076;-64
2022/01/20 04:20:36;;;;;;;0.35;0.35;;;3.40;99.90;;;;;;4441348;32;20073;-65
2022/01/20 04:23:02;;;;;;;12.65;0.70;;;3.40;99.90;;;;;;4442945;32;20133;-64
2022/01/20 04:25:28;;;;;;;0.55;0.55;;;3.40;99.90;;;;;;4441387;32;20102;-64
2022/01/20 04:27:54;;;;;;;0.40;0.40;;;3.30;99.90;;;;;;4439704;32;20086;-65
2022/01/20 04:30:19;;;;;;;0.65;0.65;;;3.20;99.90;;;;;;4439313;32;20089;-64
2022/01/20 04:32:45;;;;;;;0.50;0.50;;;3.20;99.90;;;;;;4441986;32;20073;-64
2022/01/20 04:35:10;;;;;;;3.30;1.30;;;3.20;99.90;;;;;;4439390;32;83156;-64
2022/01/20 04:37:36;;;;;;;0.40;0.40;;;3.30;99.90;;;;;;4442747;32;20415;-64
2022/01/20 04:40:03;;;;;;;0.68;0.50;;;2.70;99.90;;;;;;4442107;32;20109;-64
2022/01/20 04:42:30;;;;;;;0.30;0.30;;;2.10;99.90;;;;;;4442533;32;20073;-64
2022/01/20 04:45:02;;;;;;;1.98;1.30;;;1.90;99.90;;;;;;4442538;32;20142;-64
2022/01/20 04:47:36;;;;;;;0.30;0.30;;;1.70;99.90;;;;;;4439819;32;20076;-64
2022/01/20 04:57:16;;;;;;;0.30;0.30;;;1.40;99.90;;;;;;4437677;32;20305;-64
2022/01/20 04:58:19;;;;;;;0.30;0.30;;;1.30;99.90;;;;;;4439311;32;20481;-64
2022/01/20 05:00:45;;;;;;;0.40;0.40;;;1.40;99.90;;;;;;4441771;32;20065;-64
2022/01/20 05:03:10;;;;;;;0.32;0.32;;;1.50;99.90;;;;;;4442476;32;20085;-64
2022/01/20 05:05:36;;;;;;;0.40;0.40;;;1.60;99.90;;;;;;4442055;32;20072;-64
2022/01/20 05:08:02;;;;;;;0.52;0.52;;;1.70;99.90;;;;;;4440993;32;20053;-65
2022/01/20 05:10:30;;;;;;;0.40;0.40;;;1.80;99.90;;;;;;4439187;32;20077;-65
2022/01/20 05:15:24;;;;;;;1.85;1.50;;;2.00;99.90;;;;;;4440960;32;20045;-66
2022/01/20 05:17:50;;;;;;;0.40;0.40;;;2.10;99.90;;;;;;4435702;32;20097;-65
2022/01/20 05:20:16;;;;;;;0.40;0.40;;;2.10;99.90;;;;;;4440150;32;20081;-65
2022/01/20 05:22:41;;;;;;;0.50;0.50;;;2.30;99.90;;;;;;4434385;32;20061;-65
2022/01/20 05:25:07;;;;;;;0.40;0.40;;;2.30;99.90;;;;;;4442151;32;20123;-65
2022/01/20 05:27:34;;;;;;;0.40;0.40;;;2.40;99.90;;;;;;4441024;32;20056;-65
2022/01/20 05:30:00;;;;;;;0.40;0.40;;;2.40;99.90;;;;;;4444753;32;20544;-64
2022/01/20 05:32:26;;;;;;;0.40;0.40;;;2.40;99.90;;;;;;4445284;32;20064;-64
2022/01/20 05:34:51;;;;;;;0.70;0.70;;;2.40;99.90;;;;;;4444525;32;20073;-64
2022/01/20 05:37:17;;;;;;;0.40;0.40;;;2.50;99.90;;;;;;4444274;32;20085;-64
2022/01/20 05:39:43;;;;;;;1.95;1.23;;;2.40;99.90;;;;;;4443582;32;20065;-64
2022/01/20 05:42:09;;;;;;;2.50;1.73;;;2.50;99.90;;;;;;4445328;32;20060;-64
2022/01/20 05:44:35;;;;;;;0.30;0.30;;;2.50;99.90;;;;;;4442683;32;20081;-63
2022/01/20 05:47:06;;;;;;;0.30;0.30;;;2.50;99.90;;;;;;4443234;32;20072;-64
2022/01/20 05:49:32;;;;;;;0.75;0.75;;;2.60;99.90;;;;;;4440223;32;20097;-63
2022/01/20 05:51:58;;;;;;;0.30;0.30;;;2.60;99.90;;;;;;4443924;32;20113;-64
2022/01/20 05:54:24;;;;;;;0.30;0.30;;;2.60;99.90;;;;;;4442472;32;20100;-65
2022/01/20 05:56:50;;;;;;;0.30;0.30;;;2.60;99.90;;;;;;4443841;32;20077;-63
2022/01/20 05:59:15;;;;;;;0.45;0.45;;;2.60;99.90;;;;;;4442759;32;20093;-65
2022/01/20 06:01:41;;;;;;;0.30;0.30;;;2.60;99.90;;;;;;4435437;32;20092;-63
2022/01/20 06:04:09;;;;;;;0.30;0.30;;;2.60;99.90;;;;;;4438905;32;20094;-64
2022/01/20 06:06:36;;;;;;;0.85;0.85;;;2.70;99.90;;;;;;4436470;32;20493;-64
2022/01/20 06:09:06;;;;;;;0.68;0.68;;;2.70;99.90;;;;;;4441768;32;20080;-64
2022/01/20 06:11:32;;;;;;;0.37;0.37;;;2.70;99.90;;;;;;4440557;32;20076;-64
2022/01/20 06:13:58;;;;;;;0.35;0.35;;;2.60;99.90;;;;;;4440103;32;20447;-65
2022/01/20 06:16:23;;;;;;;0.40;0.40;;;2.60;99.90;;;;;;4438149;32;20108;-64
2022/01/20 06:18:50;;;;;;;0.32;0.32;;;2.60;99.90;;;;;;4425500;32;20065;-64
2022/01/20 06:21:15;;;;;;;1.90;0.77;;;2.60;99.90;;;;;;4441541;32;20097;-64
2022/01/20 06:23:41;;;;;;;9.70;1.73;;;2.60;99.90;;;;;;4444337;32;20069;-64
2022/01/20 06:26:10;;;;;;;0.30;0.30;;;2.60;99.90;;;;;;4431587;32;20127;-64
2022/01/20 06:28:40;;;;;;;0.90;0.90;;;2.70;99.90;;;;;;4424286;32;20136;-64
2022/01/20 06:31:06;;;;;;;0.37;0.37;;;2.60;99.90;;;;;;4417391;32;20298;-63
2022/01/20 06:33:32;;;;;;;3.80;2.05;;;2.50;99.90;;;;;;4417871;32;20592;-65
2022/01/20 06:35:59;;;;;;;0.30;0.30;;;2.50;99.90;;;;;;4418409;32;20074;-63
2022/01/20 06:38:25;;;;;;;1.80;1.20;;;2.50;99.90;;;;;;4416846;32;20070;-64
2022/01/20 06:40:51;;;;;;;0.40;0.40;;;2.40;99.90;;;;;;4423422;32;20085;-64
2022/01/20 06:43:17;;;;;;;0.30;0.30;;;2.40;99.90;;;;;;4417746;32;20082;-65
2022/01/20 06:45:44;;;;;;;0.88;0.88;;;2.30;99.90;;;;;;4420431;32;20510;-66
2022/01/20 06:48:10;;;;;;;0.30;0.30;;;2.40;99.90;;;;;;4410682;32;20331;-64
2022/01/20 06:50:36;;;;;;;0.80;0.77;;;2.30;99.90;;;;;;4408329;32;20101;-65
2022/01/20 06:53:02;;;;;;;0.30;0.30;;;2.30;99.90;;;;;;4406882;32;20262;-65
2022/01/20 06:55:27;;;;;;;0.30;0.30;;;2.20;99.90;;;;;;4405994;32;20151;-64
2022/01/20 06:57:53;;;;;;;0.62;0.62;;;2.20;99.90;;;;;;4401537;32;20113;-63
2022/01/20 07:00:22;;;;;;;1.00;1.00;;;2.20;99.90;;;;;;4399222;32;20080;-65
2022/01/20 07:02:49;;;;;;;0.30;0.30;;;2.20;99.90;;;;;;4401435;32;20089;-65
2022/01/20 07:05:17;;;;;;;0.43;0.43;;;2.20;99.90;;;;;;4394363;32;20153;-65
2022/01/20 07:07:42;;;;;;;0.55;0.55;;;2.20;99.90;;;;;;4394586;32;20073;-65
2022/01/20 07:10:10;;;;;;;0.30;0.30;;;2.10;99.90;;;;;;4396900;32;20286;-65
2022/01/20 07:12:35;;;;;;;0.30;0.30;;;2.10;99.90;;;;;;4394590;32;20105;-65
2022/01/20 07:15:01;;;;;;;3.20;1.65;;;2.00;99.90;;;;;;4400556;32;20092;-64
2022/01/20 07:17:27;;;;;;;0.40;0.40;;;2.00;99.90;;;;;;4401010;32;20097;-65
2022/01/20 07:19:52;;;;;;;0.30;0.30;;;2.10;99.90;;;;;;4402434;32;20149;-65
2022/01/20 07:22:18;;;;;;;0.85;0.85;;;2.10;99.90;;;;;;4401318;32;20093;-64
2022/01/20 07:24:44;;;;;;;0.30;0.30;;;2.10;99.90;;;;;;4404403;32;21351;-65
2022/01/20 07:27:09;;;;;;;2.90;0.77;;;2.20;99.90;;;;;;4401329;32;20120;-65
2022/01/20 07:29:35;;;;;;;0.40;0.40;;;2.30;99.90;;;;;;4403395;32;20097;-64
2022/01/20 07:32:03;;;;;;;0.50;0.50;;;2.30;99.90;;;;;;4399388;32;20101;-64
2022/01/20 07:34:30;;;;;;;5.32;1.87;;;2.20;99.90;;;;;;4406961;32;20263;-65
2022/01/20 07:36:56;;;;;;;9.55;1.67;;;2.20;99.90;;;;;;4413735;32;20156;-64
2022/01/20 07:39:21;;;;;;;0.40;0.40;;;2.20;99.90;;;;;;4416266;32;21574;-65
2022/01/20 07:41:47;;;;;;;0.30;0.30;;;2.10;99.90;;;;;;4410482;32;20097;-64
2022/01/20 07:44:14;;;;;;;29.12;0.93;;;2.10;99.90;;;;;;4415176;32;20561;-65
2022/01/20 07:46:40;;;;;;;0.30;0.30;;;2.10;99.90;;;;;;4418398;32;20105;-65
2022/01/20 07:49:05;;;;;;;0.82;0.82;;;2.10;99.90;;;;;;4411637;32;21553;-64
2022/01/20 07:51:31;;;;;;;0.30;0.30;;;2.20;99.90;;;;;;4407434;32;20117;-64
2022/01/20 07:53:56;;;;;;;0.32;0.32;;;2.20;99.90;;;;;;4407027;32;20108;-64
2022/01/20 07:56:22;;;;;;;0.30;0.30;;;2.20;99.90;;;;;;4414855;32;20432;-64
2022/01/20 07:58:47;;;;;;;3.50;1.60;;;2.20;99.90;;;;;;4423232;32;20092;-63
2022/01/20 08:01:13;;;;;;;1.10;1.05;;;2.20;99.90;;;;;;4413576;32;20578;-64
2022/01/20 08:03:39;;;;;;;0.40;0.40;;;2.20;99.90;;;;;;4410890;32;20101;-64
2022/01/20 08:06:05;;;;;;;0.32;0.32;;;2.10;99.90;;;;;;4409084;32;20726;-65
2022/01/20 08:08:30;;;;;;;0.57;0.57;;;2.10;99.90;;;;;;4412805;32;20524;-66
2022/01/20 08:10:56;;;;;;;0.40;0.40;;;2.10;99.90;;;;;;4412400;32;20093;-64
2022/01/20 08:13:22;;;;;;;0.40;0.40;;;2.10;99.90;;;;;;4407432;32;20108;-64
2022/01/20 08:15:47;;;;;;;0.32;0.32;;;2.30;99.90;;;;;;4414175;32;20610;-64
2022/01/20 08:18:14;;;;;;;0.37;0.37;;;2.30;99.90;;;;;;4418493;32;20131;-64
2022/01/20 08:20:39;;;;;;;0.40;0.40;;;2.30;99.90;;;;;;4414851;32;20065;-64
2022/01/20 08:23:05;;;;;;;3.20;1.02;;;2.40;99.90;;;;;;4408964;32;20153;-64
2022/01/20 08:25:31;;;;;;;4.22;1.85;;;2.40;99.90;;;;;;4405484;32;20104;-66
2022/01/20 08:27:57;;;;;;;0.45;0.45;;;2.40;99.90;;;;;;4408849;32;20088;-65
2022/01/20 08:30:25;;;;;;;0.30;0.30;;;2.20;99.90;;;;;;4411011;32;20185;-65
2022/01/20 08:32:51;;;;;;;0.40;0.40;;;2.30;99.90;;;;;;4420273;32;20275;-63
2022/01/20 08:35:18;;;;;;;0.40;0.40;;;2.30;99.90;;;;;;4426317;32;20077;-65
2022/01/20 08:37:45;;;;;;;0.35;0.35;;;2.40;99.90;;;;;;4419494;32;20072;-64
2022/01/20 08:40:13;;;;;;;0.40;0.40;;;2.40;99.90;;;;;;4424238;32;20096;-64
2022/01/20 08:42:41;;;;;;;2.17;0.93;;;2.50;99.90;;;;;;4432153;32;20582;-64
2022/01/20 08:45:08;;;;;;;0.50;0.50;;;2.60;99.90;;;;;;4433453;32;20068;-63
2022/01/20 08:47:33;;;;;;;0.40;0.40;;;2.60;99.90;;;;;;4425982;32;20722;-62
2022/01/20 08:49:59;;;;;;;0.40;0.40;;;2.70;99.90;;;;;;4421937;32;20986;-65
2022/01/20 08:52:28;;;;;;;0.37;0.37;;;2.60;99.90;;;;;;4419185;32;20149;-65
2022/01/20 08:54:56;;;;;;;0.32;0.32;;;2.70;99.90;;;;;;4414720;32;20077;-64
2022/01/20 08:57:22;;;;;;;0.70;0.70;;;2.70;99.90;;;;;;4419669;32;20144;-65
2022/01/20 08:59:48;;;;;;;0.40;0.40;;;2.80;99.90;;;;;;4419144;32;20504;-64
2022/01/20 09:02:13;;;;;;;1.35;0.77;;;2.80;99.90;;;;;;4422416;32;20109;-65
2022/01/20 09:04:39;;;;;;;0.82;0.82;;;2.90;99.90;;;;;;4425780;32;20178;-64
2022/01/20 09:07:05;;;;;;;0.95;0.95;;;2.90;99.90;;;;;;4419968;32;20096;-65
2022/01/20 09:09:33;;;;;;;0.82;0.82;;;3.00;99.90;;;;;;4415865;32;20081;-65
2022/01/20 09:15:42;;;;;;;0.40;0.40;;;3.20;99.90;;;;;;4423081;32;20502;-65
2022/01/20 09:17:29;;;;;;;0.35;0.35;;;3.10;99.90;;;;;;4415944;32;20065;-66
2022/01/20 09:19:56;;;;;;;0.40;0.40;;;3.10;99.90;;;;;;4414894;32;20858;-65
2022/01/20 09:22:22;;;;;;;0.37;0.37;;;3.20;99.90;;;;;;4419538;32;20142;-64
2022/01/20 09:24:47;;;;;;;0.40;0.40;;;3.10;99.90;;;;;;4412545;32;20085;-65
2022/01/20 09:27:14;;;;;;;6.82;0.93;;;3.10;99.90;;;;;;4419186;32;20571;-65
2022/01/20 09:29:40;;;;;;;0.40;0.40;;;3.20;99.90;;;;;;4424725;32;20057;-64
2022/01/20 09:32:09;;;;;;;0.40;0.40;;;3.20;99.90;;;;;;4421747;32;20156;-64
2022/01/20 09:34:36;;;;;;;1.65;0.60;;;3.20;99.90;;;;;;4422020;32;20125;-64
2022/01/20 09:37:02;;;;;;;8.88;1.50;;;3.20;99.90;;;;;;4424464;32;20156;-65
2022/01/20 09:39:28;;;;;;;0.52;0.52;;;3.00;99.90;;;;;;4420449;32;20469;-66
2022/01/20 09:41:53;;;;;;;0.50;0.50;;;3.00;99.90;;;;;;4411774;32;20114;-64
2022/01/20 09:44:21;;;;;;;0.75;0.75;;;3.00;99.90;;;;;;4417610;32;20085;-64
2022/01/20 09:46:47;;;;;;;0.30;0.30;;;3.00;99.90;;;;;;4426022;32;20065;-63
2022/01/20 09:49:13;;;;;;;0.40;0.40;;;3.10;99.90;;;;;;4427436;32;20749;-63
2022/01/20 09:51:40;;;;;;;0.73;0.73;;;3.10;99.90;;;;;;4424218;32;20109;-63
2022/01/20 09:54:07;;;;;;;2.20;0.85;;;3.10;99.90;;;;;;4420321;32;20093;-63
2022/01/20 09:56:33;;;;;;;0.55;0.55;;;3.10;99.90;;;;;;4421160;32;20761;-62
2022/01/20 09:58:59;;;;;;;0.30;0.30;;;3.10;99.90;;;;;;4427883;32;20317;-63
2022/01/20 10:01:48;;;;;;;0.30;0.30;;;3.20;99.90;;;;;;4421516;32;20458;-63
2022/01/20 10:04:31;;;;;;;0.98;0.80;;;3.10;99.90;;;;;;4411783;32;20089;-63
2022/01/20 10:07:02;;;;;;;5.57;1.40;;;3.00;99.90;;;;;;4414852;32;20582;-63
2022/01/20 10:09:34;;;;;;;0.37;0.37;;;3.10;99.90;;;;;;4425539;32;20072;-62
2022/01/20 10:11:59;;;;;;;1.77;1.37;;;3.10;99.90;;;;;;4430077;32;20112;-64
2022/01/20 10:14:25;;;;;;;0.43;0.43;;;3.10;99.90;;;;;;4429184;32;20101;-64
2022/01/20 10:16:52;;;;;;;0.40;0.40;;;3.10;99.90;;;;;;4431700;32;20080;-63
2022/01/20 10:19:23;;;;;;;0.65;0.65;;;3.10;99.90;;;;;;4426692;32;20089;-64
2022/01/20 10:21:49;;;;;;;1.48;0.80;;;3.20;99.90;;;;;;4422210;32;20152;-63
2022/01/20 10:24:15;;;;;;;0.50;0.50;;;3.20;99.90;;;;;;4420468;32;20166;-63
2022/01/20 10:26:41;;;;;;;0.30;0.30;;;3.20;99.90;;;;;;4417500;32;20118;-62
2022/01/20 10:29:13;;;;;;;0.30;0.30;;;3.20;99.90;;;;;;4418335;32;20073;-64
2022/01/20 10:31:43;;;;;;;1.98;1.48;;;3.10;99.90;;;;;;4422450;32;20113;-63
2022/01/20 10:34:21;;;;;;;0.70;0.70;;;3.10;99.90;;;;;;4418861;32;20884;-64
2022/01/20 10:36:50;;;;;;;0.50;0.50;;;3.10;99.90;;;;;;4419065;32;20101;-63
2022/01/20 10:39:16;;;;;;;0.40;0.40;;;3.20;99.90;;;;;;4419357;32;20080;-63
2022/01/20 10:41:42;;;;;;;0.37;0.37;;;3.20;99.90;;;;;;4408395;32;20803;-63
2022/01/20 10:44:11;;;;;;;3.90;1.17;;;3.30;99.90;;;;;;4417393;32;20109;-64
2022/01/20 10:46:55;;;;;;;6.00;2.67;;;3.40;99.90;;;;;;4418579;32;20155;-63
2022/01/20 10:49:27;;;;;;;0.57;0.57;;;3.40;99.90;;;;;;4418284;32;21588;-63
2022/01/20 10:52:03;;;;;;;5.72;3.25;;;3.40;99.90;;;;;;4421773;32;20659;-62
2022/01/20 10:54:40;;;;;;;0.55;0.55;;;3.40;99.90;;;;;;4425433;32;20493;-63
2022/01/20 10:57:11;;;;;;;0.40;0.40;;;3.30;99.90;;;;;;4423046;32;20173;-66
2022/01/20 10:59:56;;;;;;;0.30;0.30;;;3.40;99.90;;;;;;4417541;32;20545;-62
2022/01/20 11:02:25;;;;;;;0.70;0.70;;;3.40;99.90;;;;;;4421261;32;20092;-63
2022/01/20 11:04:51;;;;;;;0.32;0.32;;;3.50;99.90;;;;;;4408841;32;20109;-63
2022/01/20 11:07:17;;;;;;;0.43;0.43;;;3.40;99.90;;;;;;4426777;32;20439;-63
2022/01/20 11:09:45;;;;;;;0.35;0.35;;;3.50;99.90;;;;;;4430781;32;20085;-63
2022/01/20 11:12:12;;;;;;;0.98;0.90;;;3.40;99.90;;;;;;4432016;32;20232;-63
2022/01/20 11:14:39;;;;;;;1.92;1.48;;;3.40;99.90;;;;;;4431212;32;20139;-64
2022/01/20 11:17:04;;;;;;;2.30;1.25;;;3.50;99.90;;;;;;4428433;32;20176;-63
2022/01/20 11:19:38;;;;;;;3.50;1.95;;;3.70;99.90;;;;;;4429904;32;20074;-63
2022/01/20 11:22:06;;;;;;;1.98;0.93;;;3.80;99.90;;;;;;4431948;32;20078;-62
2022/01/20 11:24:32;;;;;;;1.75;1.33;;;3.80;99.90;;;;;;4421971;32;20082;-63
2022/01/20 11:27:00;;;;;;;2.15;1.60;;;3.70;99.90;;;;;;4429141;32;20082;-62
2022/01/20 11:29:47;;;;;;;0.93;0.93;;;3.60;99.90;;;;;;4431248;32;20080;-63
2022/01/20 11:32:23;;;;;;;8.45;0.95;;;3.70;99.90;;;;;;4430461;32;20073;-63
2022/01/20 11:35:08;;;;;;;0.43;0.43;;;3.70;99.90;;;;;;4431149;32;20443;-63
2022/01/20 11:37:36;;;;;;;0.40;0.40;;;3.70;99.90;;;;;;4430653;32;20101;-62
2022/01/20 11:40:20;;;;;;;0.52;0.52;;;3.70;99.90;;;;;;4429198;32;20217;-61
2022/01/20 11:43:06;;;;;;;0.57;0.57;;;3.80;99.90;;;;;;4423156;32;20121;-65
2022/01/20 11:45:37;;;;;;;1.08;0.88;;;4.10;99.90;;;;;;4429993;32;21723;-64
2022/01/20 11:48:23;;;;;;;1.55;0.85;;;4.20;99.90;;;;;;4431404;32;20155;-62
2022/01/20 11:51:12;;;;;;;0.40;0.40;;;4.30;99.90;;;;;;4427406;32;20199;-63
2022/01/20 11:53:41;;;;;;;0.32;0.32;;;4.40;99.90;;;;;;4404589;32;20200;-62
2022/01/20 11:56:08;;;;;;;0.62;0.60;;;4.50;99.90;;;;;;4420144;32;20540;-61
2022/01/20 11:58:34;;;;;;;1.85;1.20;;;4.50;99.90;;;;;;4410968;32;20102;-62
2022/01/20 12:01:08;;;;;;;1.48;1.23;;;4.60;99.90;;;;;;4414051;32;20104;-63
2022/01/20 12:03:36;;;;;;;0.32;0.32;;;4.60;99.90;;;;;;4414306;32;20525;-62
2022/01/20 12:06:13;;;;;;;0.30;0.30;;;4.60;99.90;;;;;;4409106;32;20564;-62
2022/01/20 12:08:57;;;;;;;0.73;0.73;;;4.40;99.90;;;;;;4412160;32;21624;-62
2022/01/20 12:11:35;;;;;;;0.60;0.60;;;4.50;99.90;;;;;;4410639;32;20101;-63
2022/01/20 12:14:01;;;;;;;0.70;0.70;;;4.60;99.90;;;;;;4411401;32;21864;-63
2022/01/20 12:16:27;;;;;;;3.40;1.42;;;4.90;99.90;;;;;;4415588;32;20124;-62
2022/01/20 12:18:55;;;;;;;1.05;1.05;;;4.90;99.90;;;;;;4416948;32;20089;-62
2022/01/20 12:21:22;;;;;;;1.83;0.90;;;4.90;99.90;;;;;;4416106;32;20210;-61
2022/01/20 12:23:48;;;;;;;0.50;0.50;;;5.00;99.90;;;;;;4408069;32;20555;-62
2022/01/20 12:26:14;;;;;;;0.77;0.77;;;5.40;99.90;;;;;;4413538;32;20084;-64
2022/01/20 12:28:40;;;;;;;1.00;0.90;;;5.30;99.90;;;;;;4418377;32;20818;-61
2022/01/20 12:31:08;;;;;;;4.57;0.60;;;4.90;99.90;;;;;;4420056;32;20093;-62
2022/01/20 12:33:40;;;;;;;0.70;0.70;;;4.40;99.90;;;;;;4412821;32;20088;-62
2022/01/20 12:36:13;;;;;;;0.73;0.73;;;4.40;99.90;;;;;;4415369;32;20477;-62
2022/01/20 12:38:39;;;;;;;8.23;2.62;;;4.30;99.90;;;;;;4417992;32;20089;-62
2022/01/20 12:41:15;;;;;;;0.60;0.60;;;4.30;99.90;;;;;;4409034;32;20089;-63
2022/01/20 12:44:05;;;;;;;0.30;0.30;;;4.30;99.90;;;;;;4420368;32;20888;-62
2022/01/20 12:46:33;;;;;;;0.40;0.40;;;4.20;99.90;;;;;;4422620;32;20211;-63
2022/01/20 12:49:11;;;;;;;23.30;2.12;;;4.00;99.90;;;;;;4426037;32;20582;-61
2022/01/20 12:51:40;;;;;;;0.40;0.40;;;4.00;99.90;;;;;;4429816;32;20121;-64
2022/01/20 12:54:10;;;;;;;0.30;0.30;;;4.00;99.90;;;;;;4426560;32;20068;-62
2022/01/20 12:56:39;;;;;;;0.40;0.40;;;4.10;99.90;;;;;;4422277;32;20124;-64
2022/01/20 12:59:05;;;;;;;0.40;0.40;;;4.10;99.90;;;;;;4431540;32;20451;-62
2022/01/20 13:01:48;;;;;;;0.32;0.32;;;4.20;99.90;;;;;;4430736;32;20199;-62
2022/01/20 13:04:16;;;;;;;2.22;0.57;;;4.50;99.90;;;;;;4415727;32;20560;-62
2022/01/20 13:06:53;;;;;;;0.30;0.30;;;5.10;99.90;;;;;;4428576;32;20868;-64
2022/01/20 13:09:21;;;;;;;0.30;0.30;;;5.60;99.90;;;;;;4430396;32;20073;-64
2022/01/20 13:11:56;;;;;;;0.30;0.30;;;5.90;99.90;;;;;;4428164;32;20105;-65
2022/01/20 13:14:40;;;;;;;2.17;1.37;;;5.80;99.90;;;;;;4434106;32;20399;-63
2022/01/20 13:17:08;;;;;;;0.50;0.50;;;5.50;99.90;;;;;;4423319;32;20419;-63
2022/01/20 13:19:36;;;;;;;0.40;0.40;;;5.20;99.90;;;;;;4418960;32;20089;-64
2022/01/20 13:22:05;;;;;;;0.30;0.30;;;4.80;99.90;;;;;;4422710;32;20205;-64
2022/01/20 13:24:32;;;;;;;1.55;1.42;;;4.50;99.90;;;;;;4423579;32;20696;-63
2022/01/20 13:26:59;;;;;;;0.30;0.30;;;4.30;99.90;;;;;;4422585;32;20131;-64
2022/01/20 13:29:26;;;;;;;0.62;0.62;;;4.10;99.90;;;;;;4427215;32;20288;-64
2022/01/20 13:31:56;;;;;;;0.30;0.30;;;3.90;99.90;;;;;;4429619;32;20604;-64
2022/01/20 13:34:23;;;;;;;0.47;0.47;;;3.90;99.90;;;;;;4430910;32;20139;-64
2022/01/20 13:36:51;;;;;;;0.40;0.40;;;3.90;99.90;;;;;;4431537;32;20069;-65
2022/01/20 13:39:35;;;;;;;0.35;0.35;;;3.80;99.90;;;;;;4432762;32;20099;-64
2022/01/20 13:45:12;;;;;;;0.50;0.50;;;3.90;99.90;;;;;;4435811;32;20109;-64